Trimble, Tennessee
Current Conditions -  °F | °C
As of 11:15 AM on Friday 31 Oct 2014 (Local Time) from KUCY Reporting Station
Broken Clouds Broken Clouds  
Wind Chill: 52°   Ceiling: 2900
Heat Index: 52°   Visibility: 10mi
Dew Point: 43°   Wind: 18mph
Humidity: 71%   Direction: 350°N
Pressure: 30.11"   Gusts: NA
Location:  36.2°N, 89.19°W
Report Text: KUCY 311615Z AUTO 35016KT 10SM BKN029 BKN034 BKN070 11/06 A3011 RMK
Loading
Personal Weather Stations






























Interactive Weather Map
Tropical Storm Tracking
New forecast layout! Learn more

10-Day Weather Forecast

Advertisements
Track Severe Weather on mobile